Monday, December 18, 2017, 7:48 AM EST
Back to Local

KMTP, Montauk Airport

Location: Montauk, NY, United States Lat: 41.067
Local Time: 7:48 AM EST (12:48 GMT) Lon: -71.917
Time Zone: US/Eastern Elev: 6 ft

Show me the last for .
Show Decoded

2017-12-18 06:54 METAR KMTP 181154Z AUTO 00000KT 03/M03 A3017 RMK AO1 SLP216 T00331028 10033
                 20011 55009 =
2017-12-18 05:54 METAR KMTP 181054Z AUTO 00000KT 03/M05 A3017 RMK AO1 SLP215 T00281050 =
2017-12-18 04:54 METAR KMTP 180954Z AUTO 00000KT 02/M07 A3018 RMK AO1 SLP220 T00221067 =
2017-12-18 03:54 METAR KMTP 180854Z AUTO 00000KT 02/M07 A3020 RMK AO1 SLP225 T00221072 58006 =
2017-12-18 02:54 METAR KMTP 180754Z AUTO VRB03KT 02/M09 A3021 RMK AO1 SLP230 T00171089 =
2017-12-18 01:54 METAR KMTP 180654Z AUTO 00000KT 02/M09 A3023 RMK AO1 SLP236 T00171094 =
2017-12-18 00:54 METAR KMTP 180554Z AUTO 06004KT 01/M11 A3021 RMK AO1 SLP231 T00111111 10017
                 20011 58019 =
2017-12-17 23:54 METAR KMTP 180454Z AUTO 03005KT 01/M12 A3024 RMK AO1 SLP239 T00111117 400171011
                 =
2017-12-17 22:54 METAR KMTP 180354Z AUTO 05003KT 01/M12 A3026 RMK AO1 SLP247 T00111117 =
2017-12-17 21:54 METAR KMTP 180254Z AUTO VRB03KT 01/M12 A3027 RMK AO1 SLP250 T00111117 58003 =
2017-12-17 20:54 METAR KMTP 180154Z AUTO 35006KT 01/M13 A3029 RMK AO1 SLP256 T00111128 =
2017-12-17 19:54 METAR KMTP 180054Z AUTO 34007KT 02/M13 A3029 RMK AO1 SLP255 T00171133 =
2017-12-17 18:54 METAR KMTP 172354Z AUTO 32007KT 01/M13 A3028 RMK AO1 SLP253 T00111128 10017
                 20011 51009 =
2017-12-17 17:54 METAR KMTP 172254Z AUTO 33006KT 01/M11 A3027 RMK AO1 SLP251 T00111111 =
2017-12-17 16:54 METAR KMTP 172154Z AUTO 31006KT 01/M10 A3026 RMK AO1 SLP246 T00111100 =
2017-12-17 15:54 METAR KMTP 172054Z AUTO 33008KT 01/M11 A3025 RMK AO1 SLP243 T00111106 55007 =
2017-12-17 14:54 METAR KMTP 171954Z AUTO 31008KT 01/M12 A3024 RMK AO1 SLP241 T00111117 =
2017-12-17 13:54 METAR KMTP 171854Z AUTO 31009KT 01/M12 A3024 RMK AO1 SLP240 T00111122 =
2017-12-17 12:54 METAR KMTP 171754Z AUTO 30008KT 01/M11 A3027 RMK AO1 SLP251 T00111111 10017
                 21011 55010 =
2017-12-17 11:54 METAR KMTP 171654Z AUTO 33008KT 01/M11 A3027 RMK AO1 SLP250 T00111111 =
2017-12-17 10:54 METAR KMTP 171554Z AUTO 33009KT 01/M10 A3028 RMK AO1 SLP254 T00061100 =
2017-12-17 09:54 METAR KMTP 171454Z AUTO 33011G16KT 01/M09 A3030 RMK AO1 SLP261 T00061089 53010 =
2017-12-17 08:54 METAR KMTP 171354Z AUTO 35010KT 00/M09 A3029 RMK AO1 SLP256 T00001089 =
2017-12-17 07:54 METAR KMTP 171254Z AUTO 34013KT M01/M09 A3028 RMK AO1 SLP253 T10061089 =

Support USWX by starting your Amazon purchase here.